Time;durP1;ratioP1;P1;durP2;ratioP2;P2;SDS_P1;SDS_P2;PMS_P1;PMS_P2;Temp;Humidity;BMP_temperature;BMP_pressure;BME280_temperature;BME280_humidity;BME280_pressure;Samples;Min_cycle;Max_cycle;Signal;HPM_P1;HPM_P2
2022/06/16 00:01:27;;;;;;;10.18;5.97;;;;;;;12.90;75.95;99358.27;4164746;84;21111;-83
2022/06/16 00:07:31;;;;;;;12.85;7.97;;;;;;;13.03;76.84;99368.59;4161409;84;21904;-82
2022/06/16 00:13:36;;;;;;;13.10;7.58;;;;;;;12.99;76.87;99358.14;4163131;84;21395;-85
2022/06/16 00:19:39;;;;;;;11.40;7.83;;;;;;;12.92;77.46;99351.20;4165217;84;20988;-82
2022/06/16 00:25:40;;;;;;;16.05;8.30;;;;;;;12.82;77.68;99351.93;4193770;83;21078;-83
2022/06/16 00:31:42;;;;;;;17.70;8.35;;;;;;;12.61;76.99;99348.42;4214521;83;21020;-83
2022/06/16 00:37:45;;;;;;;16.42;9.68;;;;;;;12.42;77.44;99347.84;4207454;83;21034;-83
2022/06/16 00:43:46;;;;;;;15.78;9.98;;;;;;;12.24;78.19;99344.15;4208438;83;21098;-83
2022/06/16 00:49:51;;;;;;;16.48;10.28;;;;;;;12.26;78.81;99340.45;4212320;83;21531;-83
2022/06/16 00:55:53;;;;;;;17.05;9.90;;;;;;;12.11;78.53;99335.39;4203690;83;21004;-83
2022/06/16 01:01:54;;;;;;;14.40;9.30;;;;;;;12.04;79.75;99334.55;4207637;83;21090;-84
2022/06/16 01:07:59;;;;;;;14.28;10.05;;;;;;;12.05;79.95;99331.42;4206794;83;21554;-82
2022/06/16 01:14:03;;;;;;;18.57;10.55;;;;;;;11.99;79.90;99323.90;4206137;83;21102;-83
2022/06/16 01:20:56;;;;;;;14.18;9.13;;;;;;;11.91;79.86;99316.18;4203954;83;21520;-83
2022/06/16 01:27:33;;;;;;;13.35;8.93;;;;;;;12.01;81.14;99312.74;3875916;89;21193;-83
2022/06/16 01:34:07;;;;;;;15.63;10.05;;;;;;;12.07;81.36;99309.09;4012202;84;21536;-83
2022/06/16 01:40:49;;;;;;;14.53;9.28;;;;;;;11.91;81.36;99300.30;4190534;84;21067;-82
2022/06/16 01:47:00;;;;;;;13.00;9.35;;;;;;;11.82;81.90;99305.30;4206660;84;21047;-83
2022/06/16 01:53:19;;;;;;;13.80;9.20;;;;;;;11.84;82.25;99297.49;4149969;84;21126;-83
2022/06/16 02:06:28;;;;;;;13.40;8.40;;;;;;;11.64;82.66;99288.64;4087857;84;21083;-83
2022/06/16 02:19:08;;;;;;;13.00;9.20;;;;;;;11.68;82.88;99286.71;4187744;84;21174;-82
2022/06/16 02:25:10;;;;;;;12.23;8.20;;;;;;;11.79;83.27;99284.11;4165414;83;21066;-83
2022/06/16 02:31:26;;;;;;;17.45;10.15;;;;;;;11.74;83.68;99292.66;4223806;83;21022;-83
2022/06/16 02:38:25;;;;;;;14.43;9.10;;;;;;;11.66;83.49;99295.12;4204144;83;21678;-82
2022/06/16 02:45:01;;;;;;;15.18;10.35;;;;;;;11.55;83.93;99301.03;4207093;83;22012;-83
2022/06/16 02:51:26;;;;;;;14.47;10.10;;;;;;;11.60;84.01;99300.70;4214506;83;20983;-83
2022/06/16 02:57:51;;;;;;;13.88;9.15;;;;;;;11.47;84.08;99300.16;4195789;83;21447;-83
2022/06/16 03:04:17;;;;;;;19.20;9.65;;;;;;;11.46;84.49;99294.48;4219347;83;20999;-83
2022/06/16 03:16:49;;;;;;;13.13;8.55;;;;;;;11.39;84.75;99301.80;4174882;83;21047;-83
2022/06/16 03:22:51;;;;;;;15.13;10.08;;;;;;;11.42;85.47;99303.80;4212545;83;21047;-83
2022/06/16 03:28:52;;;;;;;14.93;10.13;;;;;;;11.55;85.25;99307.87;4225634;80;79283;-84
2022/06/16 03:34:55;;;;;;;13.90;10.53;;;;;;;11.48;85.30;99298.22;4290362;81;21063;-83
2022/06/16 03:40:58;;;;;;;14.47;9.45;;;;;;;11.49;85.72;99295.10;4279359;80;21063;-83
2022/06/16 03:47:03;;;;;;;14.20;9.58;;;;;;;11.55;86.26;99297.71;4338234;80;21110;-83
2022/06/16 03:53:12;;;;;;;16.55;10.72;;;;;;;11.69;86.23;99291.63;4339009;80;21083;-83
2022/06/16 03:59:21;;;;;;;11.63;8.70;;;;;;;11.68;86.44;99292.20;4357746;80;21043;-82
2022/06/16 04:05:29;;;;;;;;;;;;;;;11.89;86.68;99294.38;4352331;80;21015;-82
2022/06/16 04:11:39;;;;;;;16.02;9.38;;;;;;;11.96;87.55;99293.90;4346385;80;20556;-83
2022/06/16 04:17:45;;;;;;;17.65;8.80;;;;;;;12.17;86.76;99288.60;4324604;80;21547;-83
2022/06/16 04:23:53;;;;;;;18.10;8.73;;;;;;;12.30;86.83;99293.23;4332735;80;21158;-83
2022/06/16 04:29:57;;;;;;;12.80;9.80;;;;;;;12.48;86.77;99285.95;4350254;80;21051;-83
2022/06/16 04:36:02;;;;;;;13.72;9.35;;;;;;;12.62;86.69;99281.94;4340283;80;21001;-84
2022/06/16 04:42:06;;;;;;;12.40;8.95;;;;;;;12.80;86.89;99287.53;4348879;80;21002;-83
2022/06/16 04:48:10;;;;;;;15.30;9.60;;;;;;;12.99;86.77;99276.27;4362980;80;22249;-83
2022/06/16 04:54:14;;;;;;;13.58;8.38;;;;;;;13.20;87.03;99275.83;4357377;80;20972;-83
2022/06/16 05:00:37;;;;;;;12.78;7.53;;;;;;;13.39;86.94;99275.53;4350514;80;21004;-84
2022/06/16 05:06:43;;;;;;;14.50;9.08;;;;;;;13.60;87.02;99277.00;4288370;81;21454;-83
2022/06/16 05:12:47;;;;;;;17.92;9.75;;;;;;;13.81;87.10;99274.91;4342464;80;21128;-84
2022/06/16 05:19:07;;;;;;;13.55;9.18;;;;;;;13.96;87.11;99266.87;4350351;79;21059;-83
2022/06/16 05:25:35;;;;;;;10.45;7.95;;;;;;;14.19;86.99;99264.53;4329699;80;21043;-83
2022/06/16 05:31:42;;;;;;;14.45;7.70;;;;;;;14.47;87.03;99268.70;4349584;80;21108;-83
2022/06/16 05:38:05;;;;;;;9.10;6.78;;;;;;;14.76;86.35;99267.52;4347027;80;22286;-83
2022/06/16 05:44:21;;;;;;;9.80;6.22;;;;;;;15.03;85.97;99251.31;4224478;80;21332;-83
2022/06/16 05:50:26;;;;;;;8.50;6.08;;;;;;;15.29;85.90;99248.86;4310271;80;21090;-83
2022/06/16 05:56:29;;;;;;;13.00;6.53;;;;;;;15.41;85.40;99251.81;4358168;79;21041;-83
2022/06/16 06:02:33;;;;;;;9.30;6.28;;;;;;;15.59;85.23;99251.12;4354142;79;21497;-83
2022/06/16 06:22:19;;;;;;;;;;;;;;;16.45;85.20;99239.92;4354302;80;21533;-84
2022/06/16 06:28:31;;;;;;;9.63;5.28;;;;;;;16.75;85.47;99244.20;4170619;83;20540;-84
2022/06/16 06:34:40;;;;;;;7.62;4.62;;;;;;;17.13;84.86;99243.59;4196292;83;22295;-83
2022/06/16 06:40:59;;;;;;;10.15;4.97;;;;;;;17.44;84.10;99232.78;4200563;83;20973;-84
2022/06/16 06:54:23;;;;;;;6.20;4.10;;;;;;;18.27;82.89;99216.73;4194015;83;21147;-84
2022/06/16 07:00:42;;;;;;;5.45;3.62;;;;;;;19.00;82.06;99222.18;4202163;83;21091;-84
2022/06/16 07:06:47;;;;;;;5.85;3.25;;;;;;;19.74;81.45;99213.14;4355133;80;20990;-84
2022/06/16 07:12:49;;;;;;;5.05;3.25;;;;;;;20.50;80.45;99199.25;4354041;80;21014;-85
2022/06/16 07:19:06;;;;;;;5.33;3.08;;;;;;;21.22;79.00;99200.50;4357187;80;22035;-85
2022/06/16 07:25:08;;;;;;;6.25;3.58;;;;;;;21.94;77.90;99190.35;4347971;80;21092;-85
2022/06/16 07:31:09;;;;;;;6.40;2.22;;;;;;;22.63;76.15;99179.52;4361412;80;21036;-85
2022/06/16 07:37:10;;;;;;;5.30;2.15;;;;;;;22.97;73.27;99184.31;4364306;78;21031;-86
2022/06/16 07:43:12;;;;;;;5.78;2.30;;;;;;;23.26;71.35;99182.70;4363672;80;22019;-85
2022/06/16 07:49:22;;;;;;;3.05;2.00;;;;;;;23.51;70.06;99183.31;4360876;80;21060;-84
2022/06/16 07:55:23;;;;;;;3.27;1.82;;;;;;;23.80;68.77;99181.59;4358604;80;20969;-86
2022/06/16 08:01:25;;;;;;;2.98;2.12;;;;;;;24.10;67.30;99177.39;4359709;80;21037;-85
2022/06/16 08:07:26;;;;;;;3.55;1.80;;;;;;;24.32;65.63;99174.52;4368549;80;20981;-86
2022/06/16 08:13:29;;;;;;;3.52;1.50;;;;;;;24.64;63.52;99170.52;4358445;80;20995;-85
2022/06/16 08:19:30;;;;;;;4.67;1.60;;;;;;;24.64;63.52;99170.52;4373314;80;20991;-86
2022/06/16 08:25:31;;;;;;;4.33;2.02;;;;;;;24.75;60.84;99162.30;4365514;80;20958;-86
2022/06/16 08:31:34;;;;;;;3.12;1.95;;;;;;;24.89;57.10;99164.48;4437566;79;21004;-86
2022/06/16 08:37:37;;;;;;;3.83;2.00;;;;;;;24.89;57.10;99164.48;4443629;80;20983;-85
2022/06/16 08:44:00;;;;;;;8.15;1.80;;;;;;;24.86;55.95;99155.61;4386105;80;21014;-87
2022/06/16 08:50:54;;;;;;;4.75;1.80;;;;;;;24.90;55.67;99149.25;4383221;80;20951;-85
2022/06/16 09:11:36;;;;;;;3.37;1.77;;;;;;;25.32;52.84;99154.33;4333074;80;21511;-86
2022/06/16 09:31:09;;;;;;;4.35;1.65;;;;;;;26.13;52.46;99128.22;4362243;80;21015;-86
2022/06/16 09:38:02;;;;;;;3.55;1.35;;;;;;;26.54;51.71;99130.75;4268933;81;21070;-87
2022/06/16 09:44:22;;;;;;;4.00;1.42;;;;;;;27.01;51.24;99118.06;4272176;81;22027;-86
2022/06/16 09:57:53;;;;;;;1.92;1.40;;;;;;;27.36;48.65;99125.23;4291538;80;21013;-87
2022/06/16 10:04:02;;;;;;;2.80;1.25;;;;;;;27.56;46.61;99120.44;4280076;81;21653;-86
2022/06/16 10:10:15;;;;;;;2.22;1.30;;;;;;;27.84;45.72;99118.09;4272887;80;21071;-86
2022/06/16 10:16:21;;;;;;;4.55;1.40;;;;;;;27.99;46.05;99116.03;4357423;80;21046;-85
2022/06/16 10:22:39;;;;;;;2.33;1.50;;;;;;;28.18;46.04;99112.32;4362600;80;21093;-86
2022/06/16 10:28:48;;;;;;;3.37;1.30;;;;;;;28.29;43.79;99111.84;4341912;79;21576;-85
2022/06/16 10:34:56;;;;;;;2.15;1.30;;;;;;;28.23;40.34;99112.41;4301150;80;21519;-87
2022/06/16 10:47:55;;;;;;;1.98;1.30;;;;;;;28.77;43.13;99112.23;4287628;82;21093;-86
2022/06/16 10:54:05;;;;;;;3.27;1.40;;;;;;;29.27;42.50;99109.29;4253145;80;21004;-86
2022/06/16 11:00:20;;;;;;;4.92;2.75;;;;;;;29.73;41.71;99109.19;4282059;81;21057;-85
2022/06/16 11:06:24;;;;;;;1.50;1.20;;;;;;;29.62;41.64;99099.20;4282689;82;21074;-86
2022/06/16 11:12:26;;;;;;;2.27;1.32;;;;;;;29.65;42.55;99101.83;4286578;82;20958;-85
2022/06/16 11:18:30;;;;;;;3.55;1.80;;;;;;;29.62;41.42;99089.33;4302780;82;21015;-86
2022/06/16 11:24:33;;;;;;;1.60;1.15;;;;;;;29.58;41.13;99089.58;4190987;83;21025;-86
2022/06/16 11:30:47;;;;;;;2.90;1.27;;;;;;;29.60;40.46;99091.24;4331602;80;21656;-86
2022/06/16 11:37:12;;;;;;;3.52;1.30;;;;;;;29.53;40.24;99080.44;4353366;80;21543;-86
2022/06/16 11:43:42;;;;;;;2.35;0.90;;;;;;;29.67;40.08;99076.73;4357297;80;21068;-86
2022/06/16 11:50:24;;;;;;;4.17;1.47;;;;;;;30.36;40.01;99071.11;4343825;80;21080;-86
2022/06/16 11:56:55;;;;;;;3.15;1.62;;;;;;;30.64;39.29;99074.81;4351350;81;21035;-86
2022/06/16 12:03:18;;;;;;;2.22;1.37;;;;;;;30.36;37.25;99055.58;4331255;81;21047;-85
2022/06/16 12:09:37;;;;;;;3.72;2.08;;;;;;;30.41;37.44;99057.00;4331982;81;21095;-84
2022/06/16 12:15:53;;;;;;;3.95;1.82;;;;;;;30.34;36.26;99041.19;4288919;82;21012;-87
2022/06/16 12:22:20;;;;;;;2.60;1.92;;;;;;;29.86;37.32;99030.55;4442256;79;21003;-85
2022/06/16 12:28:46;;;;;;;2.87;1.85;;;;;;;29.71;37.05;99015.84;4439543;79;21772;-87
2022/06/16 12:35:28;;;;;;;3.10;2.08;;;;;;;29.60;36.01;99007.28;4270278;80;22149;-85
2022/06/16 12:41:41;;;;;;;3.42;2.00;;;;;;;28.93;35.68;99005.95;4365307;80;21493;-84
2022/06/16 12:47:54;;;;;;;3.70;1.82;;;;;;;28.75;35.45;98990.16;4357005;80;21035;-85
2022/06/16 12:54:03;;;;;;;2.95;1.80;;;;;;;28.54;35.40;98980.23;4359301;80;21034;-86
2022/06/16 13:00:11;;;;;;;4.05;1.90;;;;;;;28.53;35.93;98975.88;4374138;80;21089;-86
2022/06/16 13:06:15;;;;;;;2.35;1.50;;;;;;;28.43;36.58;98966.02;4363538;80;21021;-86
2022/06/16 13:12:27;;;;;;;2.83;1.40;;;;;;;28.47;37.29;98957.35;4351105;80;21022;-86
2022/06/16 13:18:56;;;;;;;2.17;1.20;;;;;;;28.38;37.67;98946.23;4372223;80;21119;-86
2022/06/16 13:25:08;;;;;;;4.12;1.50;;;;;;;28.31;38.44;98938.23;4370995;80;21649;-86
2022/06/16 13:31:24;;;;;;;4.47;2.00;;;;;;;28.09;35.42;98917.67;4341975;80;21039;-86
2022/06/16 13:38:25;;;;;;;2.17;1.35;;;;;;;28.03;36.80;98909.02;4298534;81;21055;-85
2022/06/16 13:44:29;;;;;;;2.65;1.55;;;;;;;28.02;36.45;98901.20;4285593;82;21049;-86
2022/06/16 13:51:30;;;;;;;2.58;1.50;;;;;;;28.02;34.98;98884.98;4299244;81;21055;-84
2022/06/16 13:57:35;;;;;;;3.80;1.70;;;;;;;27.97;34.94;98868.80;4071766;86;21059;-85
2022/06/16 14:04:02;;;;;;;4.57;1.53;;;;;;;27.66;36.02;98860.23;4298319;81;21011;-85
2022/06/16 14:10:34;;;;;;;3.72;1.52;;;;;;;27.47;37.02;98856.91;4308783;81;21065;-85
2022/06/16 14:16:41;;;;;;;2.10;1.50;;;;;;;27.24;37.25;98841.01;4291537;81;21047;-85
2022/06/16 14:22:57;;;;;;;3.77;1.50;;;;;;;27.07;37.60;98821.75;4304938;81;21066;-86
2022/06/16 14:29:07;;;;;;;2.50;1.70;;;;;;;26.84;38.43;98824.11;4282690;81;21042;-86
2022/06/16 14:35:35;;;;;;;2.65;1.52;;;;;;;26.53;39.15;98835.09;4211338;82;21083;-85
2022/06/16 14:41:54;;;;;;;11.00;3.35;;;;;;;26.11;40.53;98857.82;4358043;80;21036;-86
2022/06/16 14:48:05;;;;;;;8.45;3.12;;;;;;;25.38;45.08;98978.13;4344779;80;21077;-87
2022/06/16 14:54:11;;;;;;;12.58;3.85;;;;;;;23.06;56.16;99033.61;4346860;80;21558;-86
2022/06/16 15:00:30;;;;;;;10.55;3.83;;;;;;;21.00;57.51;99096.56;4343638;80;20954;-87
2022/06/16 15:06:38;;;;;;;10.63;4.30;;;;;;;20.01;61.29;99069.23;4348267;80;20993;-90
2022/06/16 15:12:40;;;;;;;8.20;3.50;;;;;;;19.34;59.21;99061.76;4336981;80;21495;-87
2022/06/16 15:18:41;;;;;;;8.40;4.20;;;;;;;19.04;60.36;99059.23;4342479;78;21042;-85
2022/06/16 15:24:54;;;;;;;7.78;4.67;;;;;;;18.85;64.57;99064.19;4345695;80;21688;-85
2022/06/16 15:31:11;;;;;;;8.35;5.20;;;;;;;18.47;66.00;99091.48;4353573;80;20994;-84
2022/06/16 15:37:13;;;;;;;7.60;5.17;;;;;;;18.53;70.45;99123.05;4360258;80;21578;-85
2022/06/16 15:43:18;;;;;;;7.30;5.55;;;;;;;18.35;68.25;99149.66;4347639;79;21018;-85
2022/06/16 15:49:30;;;;;;;8.80;4.78;;;;;;;18.29;68.53;99149.21;4353544;80;21019;-88
2022/06/16 15:55:37;;;;;;;11.20;6.58;;;;;;;18.33;69.79;99169.31;4345608;80;21044;-89
2022/06/16 16:01:45;;;;;;;10.20;5.65;;;;;;;18.06;74.26;99183.81;4348445;79;21030;-89
2022/06/16 16:07:47;;;;;;;10.65;5.22;;;;;;;17.90;74.06;99191.38;4350900;80;21076;-89
2022/06/16 16:14:33;;;;;;;9.00;5.60;;;;;;;17.82;75.33;99203.00;4349377;80;21731;-87
2022/06/16 16:20:49;;;;;;;11.97;5.72;;;;;;;17.77;74.76;99211.77;4218745;80;10000210;-87
2022/06/16 16:27:04;;;;;;;9.90;5.37;;;;;;;17.70;75.13;99196.03;4342587;80;21124;-87
2022/06/16 16:33:09;;;;;;;8.23;5.53;;;;;;;17.64;75.47;99183.07;4324801;80;21061;-87
2022/06/16 16:39:30;;;;;;;10.60;6.30;;;;;;;17.56;75.76;99176.86;4341434;80;21681;-86
2022/06/16 16:45:49;;;;;;;10.60;6.33;;;;;;;17.51;76.90;99178.70;4341833;80;21085;-84
2022/06/16 16:51:50;;;;;;;9.88;6.87;;;;;;;17.44;77.79;99187.11;4344471;80;22181;-85
2022/06/16 16:57:53;;;;;;;9.58;6.67;;;;;;;17.42;78.38;99175.64;4352097;80;21594;-86
2022/06/16 17:03:59;;;;;;;9.93;6.37;;;;;;;;;;4336415;81;20993;-84
2022/06/16 17:10:04;;;;;;;12.35;7.72;;;;;;;17.48;80.21;99176.00;4303724;81;21021;-84
2022/06/16 17:16:06;;;;;;;8.53;7.17;;;;;;;17.52;80.31;99174.75;4297034;81;21026;-84
2022/06/16 17:22:07;;;;;;;13.43;9.50;;;;;;;17.35;82.38;99165.27;4263811;82;21646;-84
2022/06/16 17:28:09;;;;;;;8.78;7.25;;;;;;;17.35;82.06;99157.77;4275424;81;21050;-84
2022/06/16 17:34:23;;;;;;;10.05;8.28;;;;;;;17.51;82.91;99168.25;4340618;80;21098;-85
2022/06/16 17:40:25;;;;;;;8.20;6.47;;;;;;;17.49;84.23;99166.48;4293309;81;21038;-84
2022/06/16 17:46:27;;;;;;;8.58;6.22;;;;;;;17.31;84.62;99140.41;4278118;81;21463;-84
2022/06/16 18:05:21;;;;;;;8.48;6.25;;;;;;;17.02;87.28;99090.83;4294566;81;21011;-85
2022/06/16 18:11:25;;;;;;;8.28;6.15;;;;;;;17.03;87.08;99094.56;4323484;81;21038;-85
2022/06/16 18:17:28;;;;;;;6.33;5.30;;;;;;;17.11;86.95;99087.73;4312978;81;20983;-85
2022/06/16 18:23:30;;;;;;;6.62;5.28;;;;;;;16.96;87.82;99073.13;4315981;81;21133;-85
2022/06/16 18:29:34;;;;;;;8.23;5.83;;;;;;;16.82;87.33;99060.26;4291401;81;21935;-85
2022/06/16 18:35:39;;;;;;;11.28;7.10;;;;;;;16.85;87.96;99062.81;4306653;81;21046;-85
2022/06/16 18:41:50;;;;;;;9.18;6.40;;;;;;;16.79;87.85;99085.97;4313638;81;21027;-85
2022/06/16 18:47:55;;;;;;;8.33;6.05;;;;;;;16.67;88.06;99103.69;4322029;81;21499;-85
2022/06/16 18:54:08;;;;;;;9.15;6.60;;;;;;;16.66;88.96;99125.02;4308944;81;21515;-85
2022/06/16 19:00:28;;;;;;;9.28;6.00;;;;;;;16.67;89.15;99134.89;4307382;82;21567;-85
2022/06/16 19:06:32;;;;;;;8.83;6.20;;;;;;;16.66;89.12;99156.80;4316026;81;20948;-85
2022/06/16 19:12:34;;;;;;;8.95;6.53;;;;;;;16.74;89.65;99176.88;4311871;82;21020;-85
2022/06/16 19:18:36;;;;;;;9.43;7.05;;;;;;;16.68;89.57;99176.53;4312268;81;20983;-85
2022/06/16 19:24:39;;;;;;;9.70;6.00;;;;;;;16.64;89.47;99187.44;4292783;81;21479;-85
2022/06/16 19:30:41;;;;;;;11.30;7.55;;;;;;;16.56;90.32;99207.45;4308025;81;21023;-85
2022/06/16 19:36:43;;;;;;;7.67;6.87;;;;;;;16.62;90.42;99211.92;4309600;81;21043;-85
2022/06/16 19:42:46;;;;;;;10.40;7.47;;;;;;;16.48;90.74;99217.59;4312409;81;22004;-85
2022/06/16 19:55:20;;;;;;;11.50;8.05;;;;;;;16.45;91.44;99227.48;4322838;81;20953;-84
2022/06/16 20:01:21;;;;;;;10.93;7.37;;;;;;;16.38;91.40;99231.65;4302671;81;21051;-85
2022/06/16 20:07:26;;;;;;;8.60;7.50;;;;;;;16.33;91.63;99223.82;4305365;81;21622;-85
2022/06/16 20:13:32;;;;;;;9.33;7.25;;;;;;;16.24;91.85;99221.34;4311059;80;22192;-85
2022/06/16 20:19:33;;;;;;;8.63;6.67;;;;;;;16.18;92.36;99210.50;4312082;81;21063;-85
2022/06/16 20:25:45;;;;;;;11.45;7.85;;;;;;;16.14;93.02;99210.55;4318929;81;21030;-85
2022/06/16 20:31:50;;;;;;;11.33;9.28;;;;;;;16.20;93.48;99221.36;4331977;82;21007;-85
2022/06/16 20:37:51;;;;;;;14.10;9.10;;;;;;;16.14;92.87;99226.33;4320752;81;21544;-85
2022/06/16 20:50:25;;;;;;;15.45;8.48;;;;;;;16.07;93.71;99240.20;4307914;81;20928;-85
2022/06/16 20:56:32;;;;;;;;;;;;;;;16.06;94.35;99253.22;4288256;82;21026;-85
2022/06/16 21:02:34;;;;;;;9.50;8.08;;;;;;;16.17;94.31;99255.31;4308497;81;20186;-86
2022/06/16 21:08:36;;;;;;;9.98;7.17;;;;;;;15.98;95.18;99248.13;4310245;81;21066;-85
2022/06/16 21:14:45;;;;;;;11.85;7.17;;;;;;;15.88;95.26;99249.00;4319480;81;21022;-85
2022/06/16 21:20:50;;;;;;;10.10;7.53;;;;;;;15.91;94.96;99243.44;4263584;81;21622;-85
2022/06/16 21:26:56;;;;;;;8.73;7.28;;;;;;;15.99;95.54;99249.73;4285384;82;21031;-85
2022/06/16 21:33:04;;;;;;;8.08;6.62;;;;;;;15.87;95.49;99231.64;4140936;84;21002;-86
2022/06/16 21:39:07;;;;;;;10.72;7.60;;;;;;;15.76;95.88;99212.19;4201516;84;21065;-85
2022/06/16 21:45:10;;;;;;;8.90;7.58;;;;;;;15.73;96.33;99182.05;4265326;82;21031;-86
2022/06/16 21:51:14;;;;;;;12.28;8.68;;;;;;;15.75;96.34;99187.17;4258486;82;21050;-86
2022/06/16 21:57:30;;;;;;;14.68;8.33;;;;;;;15.76;96.66;99195.05;4239234;82;21019;-86
2022/06/16 22:03:42;;;;;;;10.13;7.72;;;;;;;15.74;96.63;99191.13;4244304;82;21002;-85
2022/06/16 22:09:50;;;;;;;11.57;6.50;;;;;;;15.73;97.28;99184.81;4306359;82;21011;-85
2022/06/16 22:15:56;;;;;;;9.60;5.95;;;;;;;15.71;97.16;99189.95;4243037;82;21019;-86
2022/06/16 22:22:19;;;;;;;11.75;6.40;;;;;;;15.65;97.33;99194.33;4295972;82;21008;-86
2022/06/16 22:28:42;;;;;;;9.83;6.12;;;;;;;15.68;97.35;99201.03;4211608;82;20995;-85
2022/06/16 22:34:43;;;;;;;11.43;6.87;;;;;;;15.70;97.65;99199.42;4251132;81;21573;-86
2022/06/16 22:40:52;;;;;;;7.78;6.33;;;;;;;15.76;97.82;99214.95;4286277;82;21697;-86
2022/06/16 22:47:06;;;;;;;9.43;6.67;;;;;;;15.75;97.69;99212.01;4238499;83;21061;-86
2022/06/16 22:53:19;;;;;;;14.13;6.95;;;;;;;15.74;97.72;99215.97;4228777;83;21657;-86
2022/06/16 22:59:43;;;;;;;9.85;7.55;;;;;;;15.74;97.67;99227.77;4214861;83;21626;-86
2022/06/16 23:06:17;;;;;;;12.43;7.15;;;;;;;15.59;97.32;99222.16;4152370;84;21004;-86
2022/06/16 23:12:33;;;;;;;22.75;8.53;;;;;;;15.51;97.63;99229.69;4261509;82;21566;-86
2022/06/16 23:18:48;;;;;;;14.38;8.28;;;;;;;15.42;97.43;99221.07;4307251;80;20987;-86
2022/06/16 23:24:49;;;;;;;12.68;7.78;;;;;;;15.43;98.20;99228.15;4319905;80;21004;-86
2022/06/16 23:31:00;;;;;;;13.20;7.95;;;;;;;15.47;98.38;99227.52;4315266;80;21026;-86
2022/06/16 23:37:04;;;;;;;13.60;9.00;;;;;;;15.42;98.35;99234.06;4320187;80;21047;-85
2022/06/16 23:43:19;;;;;;;13.48;9.68;;;;;;;15.25;97.67;99221.88;4318516;80;21544;-86
2022/06/16 23:49:29;;;;;;;15.35;8.83;;;;;;;15.10;98.21;99223.71;4327267;80;21061;-85
2022/06/16 23:55:44;;;;;;;14.60;8.85;;;;;;;15.10;98.11;99220.37;4325361;80;21510;-85
